Airfield :
LOGIN :

Register | Disclaimer

   EN    FR    IT 

 










Legend :    VFR   Marginal VFR   IFR   Intensive IFR   Very Intensive IFR
Visi :
Ceiling :
>= 8 km
>= 3000ft
5 to 8 km
1000 to 3000 ft
1500m to 5 km
500 to 1000 ft
800 to 1500m
200 to 500 ft
< 800m
< 200 ft
Symbols :   Thunderstorms  Fog  Heavy snow  Heavy precipitations  Wind > 20 kt
SIGMETs :     Misc.  Thunderstorms  Icing  Turbulence  Mountain Waves  Volcanic Ashes






- Airport Elevation : 300 ft
- IATA code : MLA


LMML - Malta Luqa

CURRENT METAR :
  • 040445Z 31005KT 270V360 CAVOK 24/22 Q1012

EXPIRED METARs :
  • 040415Z 02005KT CAVOK 24/22 Q1012
  • 040345Z 03006KT 9000 NSC 24/22 Q1012
  • 040315Z 02009KT CAVOK 24/22 Q1012 NOSIG
  • 040245Z 02011KT CAVOK 24/22 Q1012 NOSIG
  • 040215Z AUTO 01012KT CAVOK 24/22 Q1012 NOSIG

TAF TAF LMML
Valid from the 04 at 00:00 until the 05 at 00:00 UTC


032300Z 0400/0424 32014KT 9999 FEW015
PROB30
TEMPO 0400/0406 9000 BKN009
BECMG 0414/0417 31022G32KT



MET'MAP, your aeronautical weather chart ! - Copyright ORBIFLY December 2007 - Disclaimer

ORBIFLY MET'MAP TEAM :

Programming & Development : Alexandra Zaïnal
Concept & original design : Baudouin d'Aumeries
Assistance for programming : Marc-Olivier Méhu
Technical & hardware support : Manuel Goepfert

Contact : metmap@orbifly.com




SOURCES & CREDITS :

   NOAA